Time;durP1;ratioP1;P1;durP2;ratioP2;P2;SDS_P1;SDS_P2;PMS_P1;PMS_P2;Temp;Humidity;BMP_temperature;BMP_pressure;BME280_temperature;BME280_humidity;BME280_pressure;Samples;Min_cycle;Max_cycle;Signal;HPM_P1;HPM_P2
2021/12/21 00:02:18;;;;;;;18.70;9.50;;;;;;;;;;5076139;28;20056;-80
2021/12/21 00:04:44;;;;;;;13.55;7.38;;;;;;;;;;5094078;28;20097;-80
2021/12/21 00:07:10;;;;;;;83.90;7.38;;;;;;;;;;5093979;28;20047;-80
2021/12/21 00:09:36;;;;;;;141.00;9.65;;;;;;;;;;5093685;28;20131;-80
2021/12/21 00:12:02;;;;;;;8.10;4.88;;;;;;;;;;5075829;28;20079;-80
2021/12/21 00:14:49;;;;;;;6.57;4.80;;;;;;;;;;5093748;28;20055;-80
2021/12/21 00:17:29;;;;;;;7.20;4.85;;;;;;;;;;5093406;28;20052;-81
2021/12/21 00:25:08;;;;;;;131.27;8.40;;;;;;;;;;5092294;28;20403;-80
2021/12/21 00:27:34;;;;;;;10.95;5.30;;;;;;;;;;5093772;28;20047;-80
2021/12/21 00:30:00;;;;;;;6.80;4.55;;;;;;;;;;5092503;28;20052;-80
2021/12/21 00:32:28;;;;;;;6.90;4.35;;;;;;;;;;5093601;28;20051;-81
2021/12/21 00:34:54;;;;;;;7.07;5.05;;;;;;;;;;5092688;28;20048;-80
2021/12/21 00:37:22;;;;;;;5.72;5.13;;;;;;;;;;5092311;28;20136;-79
2021/12/21 00:39:48;;;;;;;6.47;4.85;;;;;;;;;;5093472;28;20055;-80
2021/12/21 00:42:14;;;;;;;8.35;7.13;;;;;;;;;;5092398;28;20480;-80
2021/12/21 00:44:41;;;;;;;16.65;10.35;;;;;;;;;;5093437;28;20452;-80
2021/12/21 00:47:07;;;;;;;9.98;6.72;;;;;;;;;;5093476;28;20059;-80
2021/12/21 00:49:35;;;;;;;24.15;9.55;;;;;;;;;;5093409;28;20048;-80
2021/12/21 00:52:01;;;;;;;17.83;9.25;;;;;;;;;;5094240;28;20157;-80
2021/12/21 00:54:27;;;;;;;22.45;12.45;;;;;;;;;;5097436;28;20043;-81
2021/12/21 00:56:53;;;;;;;21.70;12.05;;;;;;;;;;5097419;28;20070;-80
2021/12/21 00:59:19;;;;;;;20.80;10.18;;;;;;;;;;5097400;28;20047;-80
2021/12/21 01:01:45;;;;;;;23.52;11.23;;;;;;;;;;5096425;28;20044;-80
2021/12/21 01:04:21;;;;;;;23.02;11.05;;;;;;;;;;5096333;28;20082;-80
2021/12/21 01:07:01;;;;;;;15.23;7.45;;;;;;;;;;5097098;28;20442;-80
2021/12/21 01:09:58;;;;;;;21.77;10.85;;;;;;;;;;5097168;28;20108;-80
2021/12/21 01:12:30;;;;;;;26.95;13.23;;;;;;;;;;5096682;28;20448;-80
2021/12/21 01:18:11;;;;;;;26.27;11.95;;;;;;;;;;5054387;28;20049;-80
2021/12/21 01:20:46;;;;;;;27.30;13.77;;;;;;;;;;5054353;28;20056;-80
2021/12/21 01:25:57;;;;;;;35.30;14.85;;;;;;;;;;5096854;28;20062;-80
2021/12/21 01:28:39;;;;;;;35.38;15.43;;;;;;;;;;5096892;28;20083;-80
2021/12/21 01:36:02;;;;;;;29.13;14.90;;;;;;;;;;5096424;28;20051;-79
2021/12/21 01:38:49;;;;;;;32.78;16.90;;;;;;;;;;5096635;28;20126;-80
2021/12/21 01:44:00;;;;;;;40.47;17.38;;;;;;;;;;5096720;28;20058;-80
2021/12/21 01:51:56;;;;;;;26.90;15.00;;;;;;;;;;5094903;28;20503;-79
2021/12/21 01:54:22;;;;;;;32.13;15.60;;;;;;;;;;5095402;28;20425;-80
2021/12/21 01:56:48;;;;;;;23.15;13.25;;;;;;;;;;5095109;28;20052;-80
2021/12/21 01:59:14;;;;;;;24.90;12.30;;;;;;;;;;5096279;28;20047;-80
2021/12/21 02:01:41;;;;;;;22.13;12.75;;;;;;;;;;5096206;28;20096;-79
2021/12/21 02:04:08;;;;;;;24.92;12.68;;;;;;;;;;5095758;28;20086;-80
2021/12/21 02:06:34;;;;;;;22.20;11.80;;;;;;;;;;5095784;28;20411;-79
2021/12/21 02:09:00;;;;;;;28.48;12.65;;;;;;;;;;5095032;28;20044;-80
2021/12/21 02:11:26;;;;;;;20.65;10.02;;;;;;;;;;5094859;28;20040;-79
2021/12/21 02:13:53;;;;;;;21.58;12.27;;;;;;;;;;5094772;28;20407;-79
2021/12/21 02:16:36;;;;;;;20.00;10.90;;;;;;;;;;5094548;28;20108;-79
2021/12/21 02:19:09;;;;;;;20.27;11.57;;;;;;;;;;5094446;28;20546;-79
2021/12/21 02:21:45;;;;;;;26.35;13.20;;;;;;;;;;5095836;28;20400;-79
2021/12/21 02:24:16;;;;;;;21.35;11.30;;;;;;;;;;5094850;28;20056;-79
2021/12/21 02:27:16;;;;;;;30.92;11.52;;;;;;;;;;5094583;28;20481;-79
2021/12/21 02:29:41;;;;;;;19.67;10.98;;;;;;;;;;5095319;28;20048;-79
2021/12/21 02:32:08;;;;;;;22.67;12.45;;;;;;;;;;5093830;28;20087;-79
2021/12/21 02:34:35;;;;;;;21.73;12.32;;;;;;;;;;5095283;28;20052;-79
2021/12/21 02:37:01;;;;;;;21.40;13.38;;;;;;;;;;5094408;28;20048;-79
2021/12/21 02:39:27;;;;;;;20.90;12.02;;;;;;;;;;5095119;28;20499;-79
2021/12/21 02:41:53;;;;;;;;;;;-0.50;99.90;;;;;;5095873;28;20040;-79
2021/12/21 02:44:19;;;;;;;25.30;13.95;;;;;;;;;;5094089;28;20029;-79
2021/12/21 02:46:45;;;;;;;26.50;13.20;;;;;;;;;;5095365;28;20048;-79
2021/12/21 02:49:12;;;;;;;16.77;11.52;;;;;;;;;;5095139;28;20102;-79
2021/12/21 02:51:40;;;;;;;23.55;11.60;;;-1.00;99.90;;;;;;5093801;28;20048;-78
2021/12/21 02:54:07;;;;;;;21.30;11.45;;;;;;;;;;5094174;28;20503;-79
2021/12/21 02:56:33;;;;;;;20.00;11.25;;;;;;;;;;5095056;28;20044;-79
2021/12/21 02:58:59;;;;;;;20.02;11.80;;;;;;;;;;5094051;28;20368;-78
2021/12/21 03:01:25;;;;;;;23.50;11.30;;;;;;;;;;5094974;28;20040;-78
2021/12/21 03:03:52;;;;;;;;;;;-0.70;99.90;;;;;;5095245;28;20105;-79
2021/12/21 03:09:12;;;;;;;22.15;11.68;;;;;;;;;;5094927;28;20059;-78
2021/12/21 03:11:50;;;;;;;23.73;11.75;;;;;;;;;;5094875;28;20074;-78
2021/12/21 03:14:16;;;;;;;20.10;10.93;;;;;;;;;;5093749;28;20048;-78
2021/12/21 03:16:43;;;;;;;20.27;10.43;;;;;;;;;;5094289;28;20512;-78
2021/12/21 03:19:10;;;;;;;18.02;9.27;;;;;;;;;;5094397;28;20134;-79
2021/12/21 03:21:36;;;;;;;18.25;10.10;;;;;;;;;;5094534;28;20101;-78
2021/12/21 03:24:03;;;;;;;16.88;8.52;;;-1.00;99.90;;;;;;5093800;28;20051;-78
2021/12/21 03:26:30;;;;;;;12.73;8.50;;;;;;;;;;5093491;28;20048;-79
2021/12/21 03:28:56;;;;;;;15.27;8.27;;;;;;;;;;5094684;28;20503;-78
2021/12/21 03:31:22;;;;;;;21.33;10.05;;;;;;;;;;5094077;28;20060;-79
2021/12/21 03:33:48;;;;;;;23.10;9.45;;;;;;;;;;5093333;28;20071;-78
2021/12/21 03:36:16;;;;;;;23.98;10.70;;;;;;;;;;5094268;28;20044;-78
2021/12/21 03:38:48;;;;;;;15.93;9.90;;;;;;;;;;5094272;28;20052;-79
2021/12/21 03:41:16;;;;;;;18.52;9.77;;;;;;;;;;5094289;28;20040;-78
2021/12/21 03:43:42;;;;;;;21.33;10.85;;;;;;;;;;5093079;28;20044;-78
2021/12/21 03:46:11;;;;;;;22.15;11.20;;;;;;;;;;5075960;28;20052;-79
2021/12/21 03:48:41;;;;;;;23.30;12.55;;;;;;;;;;5093804;28;20492;-78
2021/12/21 03:51:07;;;;;;;26.25;11.50;;;;;;;;;;5094081;28;20047;-79
2021/12/21 03:53:33;;;;;;;18.65;10.50;;;;;;;;;;5094138;28;20408;-78
2021/12/21 03:56:42;;;;;;;;;;;;;;;;;;5093778;28;20058;-78
2021/12/21 03:58:49;;;;;;;18.50;11.02;;;;;;;;;;5092997;28;19928;-78
2021/12/21 04:01:15;;;;;;;;;;;-1.10;99.90;;;;;;5093214;28;20085;-78
2021/12/21 04:03:41;;;;;;;21.73;12.30;;;;;;;;;;5092640;28;20389;-78
2021/12/21 04:06:07;;;;;;;18.15;10.73;;;;;;;;;;5093885;28;20427;-78
2021/12/21 04:08:34;;;;;;;19.88;11.27;;;;;;;;;;5092603;28;20093;-79
2021/12/21 04:11:01;;;;;;;19.52;11.38;;;;;;;;;;5093694;28;20509;-78
2021/12/21 04:13:27;;;;;;;18.30;10.30;;;;;;;;;;5092404;28;20048;-78
2021/12/21 04:15:54;;;;;;;15.25;10.27;;;;;;;;;;5093569;28;20097;-78
2021/12/21 04:18:23;;;;;;;18.83;10.27;;;;;;;;;;5092933;28;20460;-78
2021/12/21 04:20:49;;;;;;;22.35;10.98;;;;;;;;;;5093624;28;20161;-78
2021/12/21 04:23:16;;;;;;;17.30;10.80;;;;;;;;;;5093597;28;20104;-78
2021/12/21 04:25:42;;;;;;;;;;;-1.50;99.90;;;;;;5092885;28;20059;-78
2021/12/21 04:28:08;;;;;;;14.57;10.00;;;;;;;;;;5092716;28;19924;-78
2021/12/21 04:30:34;;;;;;;20.35;11.45;;;;;;;;;;5092850;28;20056;-78
2021/12/21 04:33:00;;;;;;;;;;;-1.60;99.90;;;;;;5093899;28;20177;-78
2021/12/21 04:35:26;;;;;;;20.08;10.38;;;;;;;;;;5093322;28;20401;-78
2021/12/21 04:37:57;;;;;;;18.10;10.00;;;;;;;;;;5092494;28;20048;-78
2021/12/21 04:40:37;;;;;;;20.83;11.95;;;;;;;;;;5093487;28;20052;-78
2021/12/21 04:43:03;;;;;;;20.33;12.43;;;;;;;;;;5092595;28;20048;-78
2021/12/21 04:45:29;;;;;;;20.13;10.55;;;;;;;;;;5093208;28;20048;-78
2021/12/21 04:47:55;;;;;;;23.33;12.02;;;;;;;;;;5093369;28;20044;-78
2021/12/21 04:50:21;;;;;;;24.52;13.77;;;;;;;;;;5093379;28;20044;-78
2021/12/21 04:52:47;;;;;;;20.30;12.82;;;;;;;;;;5092334;28;20457;-78
2021/12/21 04:55:13;;;;;;;21.60;12.35;;;;;;;;;;5092295;28;20048;-78
2021/12/21 04:57:40;;;;;;;21.63;11.68;;;;;;;;;;5109534;28;20465;-78
2021/12/21 05:00:07;;;;;;;18.35;11.65;;;;;;;;;;5092092;28;20131;-78
2021/12/21 05:02:33;;;;;;;21.20;11.85;;;;;;;;;;5092081;28;20044;-77
2021/12/21 05:04:59;;;;;;;20.15;10.75;;;;;;;;;;5092095;28;20156;-78
2021/12/21 05:07:28;;;;;;;19.65;10.05;;;;;;;;;;5093253;28;20048;-78
2021/12/21 05:10:00;;;;;;;18.45;10.23;;;;;;;;;;5093393;28;20090;-77
2021/12/21 05:12:26;;;;;;;19.30;11.60;;;;;;;;;;5092457;28;20377;-78
2021/12/21 05:14:53;;;;;;;16.70;9.98;;;;;;;;;;5092885;28;20131;-78
2021/12/21 05:17:19;;;;;;;18.83;10.65;;;;;;;;;;5092389;28;20047;-78
2021/12/21 05:19:45;;;;;;;19.02;10.13;;;;;;;;;;5093069;28;20052;-78
2021/12/21 05:22:12;;;;;;;16.95;10.13;;;;;;;;;;5092390;28;20156;-77
2021/12/21 05:24:39;;;;;;;16.85;9.15;;;;;;;;;;5093085;28;20098;-78
2021/12/21 05:27:05;;;;;;;18.88;9.05;;;;;;;;;;5091927;28;20441;-77
2021/12/21 05:29:31;;;;;;;;;;;-1.80;99.90;;;;;;5092225;28;20054;-77
2021/12/21 05:32:00;;;;;;;17.27;8.55;;;;;;;;;;5092559;28;19920;-77
2021/12/21 05:34:28;;;;;;;16.38;8.50;;;;;;;;;;5091614;28;20044;-77
2021/12/21 05:36:54;;;;;;;17.67;8.63;;;;;;;;;;5091910;28;20041;-77
2021/12/21 05:39:24;;;;;;;18.50;9.77;;;;;;;;;;5095883;28;20131;-76
2021/12/21 05:41:52;;;;;;;17.67;10.05;;;;;;;;;;5096663;28;20075;-80
2021/12/21 05:44:22;;;;;;;17.70;9.80;;;;;;;;;;5096698;28;20087;-76
2021/12/21 05:46:49;;;;;;;18.13;9.70;;;;;;;;;;5095393;28;20048;-76
2021/12/21 05:49:15;;;;;;;25.27;10.48;;;;;;;;;;5095162;28;20507;-77
2021/12/21 05:51:41;;;;;;;19.50;10.02;;;;;;;;;;5095032;28;20373;-78
2021/12/21 05:54:08;;;;;;;20.88;9.98;;;;;;;;;;5095422;28;20044;-76
2021/12/21 05:56:34;;;;;;;18.05;10.52;;;;;;;;;;5096188;28;20051;-76
2021/12/21 05:59:02;;;;;;;19.70;10.75;;;;;;;;;;5095215;28;20056;-76
2021/12/21 06:01:28;;;;;;;18.05;10.02;;;;;;;;;;5096208;28;20457;-76
2021/12/21 06:03:55;;;;;;;15.25;9.13;;;;;;;;;;5096238;28;20122;-76
2021/12/21 06:06:21;;;;;;;15.63;9.10;;;;;;;;;;5096317;28;20048;-76
2021/12/21 06:08:48;;;;;;;17.90;9.55;;;;;;;;;;5095994;28;20040;-76
2021/12/21 06:11:15;;;;;;;18.35;10.10;;;;;;;;;;5094401;28;20062;-76
2021/12/21 06:27:10;;;;;;;18.75;9.52;;;;;;;;;;5094528;28;20407;-75
2021/12/21 06:29:36;;;;;;;;;;;;;;;;;;5095303;28;20545;-76
2021/12/21 06:32:02;;;;;;;12.93;8.40;;;;;;;;;;5094016;28;19920;-76
2021/12/21 06:34:28;;;;;;;17.25;9.68;;;;;;;;;;5094632;28;20064;-75
2021/12/21 06:36:55;;;;;;;19.70;10.13;;;;;;;;;;5095575;28;20063;-76
2021/12/21 06:39:21;;;;;;;21.00;10.65;;;;;;;;;;5095664;28;20043;-75
2021/12/21 06:41:47;;;;;;;16.58;9.30;;;;;;;;;;5093817;28;20551;-75
2021/12/21 06:44:15;;;;;;;17.52;10.15;;;;;;;;;;5094371;28;20048;-75
2021/12/21 06:51:53;;;;;;;19.38;10.07;;;;;;;;;;5094035;28;20469;-76
2021/12/21 06:54:19;;;;;;;20.65;11.05;;;;;;;;;;5077221;28;20051;-75
2021/12/21 06:56:44;;;;;;;;;;;-1.90;99.90;;;;;;5094465;28;20119;-76
2021/12/21 06:59:11;;;;;;;20.30;10.23;;;;;;;;;;5095053;28;20010;-76
2021/12/21 07:01:38;;;;;;;15.55;9.25;;;;;;;;;;5094034;28;20078;-75
2021/12/21 07:04:09;;;;;;;18.40;8.85;;;-1.90;99.90;;;;;;5093957;28;20052;-75
2021/12/21 07:06:39;;;;;;;19.10;9.80;;;;;;;;;;5094961;28;20044;-76
2021/12/21 07:11:41;;;;;;;;;;;-1.70;99.90;;;;;;5094149;28;20480;-75
2021/12/21 07:19:38;;;;;;;18.90;9.30;;;;;;;;;;5093958;28;20492;-76
2021/12/21 07:22:05;;;;;;;14.88;8.27;;;;;;;;;;5076477;28;20420;-76
2021/12/21 07:24:31;;;;;;;16.63;9.05;;;;;;;;;;5093223;28;20040;-75
2021/12/21 07:26:57;;;;;;;15.43;9.77;;;;;;;;;;5093246;28;20077;-76
2021/12/21 07:29:23;;;;;;;18.25;9.93;;;;;;;;;;5093529;28;20044;-75
2021/12/21 07:31:50;;;;;;;20.10;9.73;;;;;;;;;;5085263;28;20067;-76
2021/12/21 07:34:16;;;;;;;21.92;12.35;;;;;;;;;;5091002;28;20391;-76
2021/12/21 07:36:45;;;;;;;23.95;10.98;;;;;;;;;;5091662;28;20130;-76
2021/12/21 07:39:14;;;;;;;25.10;12.43;;;-1.80;99.90;;;;;;5072023;28;20044;-76
2021/12/21 07:41:40;;;;;;;18.70;11.18;;;;;;;;;;5092241;28;20091;-76
2021/12/21 07:44:07;;;;;;;21.75;11.45;;;;;;;;;;5087916;28;20516;-76
2021/12/21 07:46:33;;;;;;;29.58;13.73;;;;;;;;;;5091603;28;20052;-77
2021/12/21 07:48:59;;;;;;;25.02;12.57;;;;;;;;;;5091719;28;20048;-76
2021/12/21 07:51:25;;;;;;;27.67;12.38;;;;;;;;;;5091656;28;20048;-76
2021/12/21 07:53:51;;;;;;;;;;;;;;;;;;5090775;28;20047;-76
2021/12/21 07:56:17;;;;;;;24.83;11.95;;;;;;;;;;5092393;28;19946;-79
2021/12/21 07:58:45;;;;;;;20.02;12.18;;;;;;;;;;5075118;28;20097;-76
2021/12/21 08:01:11;;;;;;;23.25;12.57;;;;;;;;;;5090894;28;20056;-76
2021/12/21 08:03:38;;;;;;;22.45;12.40;;;;;;;;;;5091986;28;20040;-77
2021/12/21 08:06:07;;;;;;;25.27;12.82;;;;;;;;;;5091686;28;20488;-76
2021/12/21 08:08:35;;;;;;;22.13;12.55;;;;;;;;;;5090942;28;20040;-76
2021/12/21 08:12:10;;;;;;;25.63;12.52;;;;;;;;;;5091417;28;20044;-75
2021/12/21 08:14:00;;;;;;;21.27;12.40;;;;;;;;;;5087821;28;20048;-75
2021/12/21 08:16:26;;;;;;;27.40;14.18;;;;;;;;;;5091363;28;20093;-76
2021/12/21 08:18:52;;;;;;;25.20;13.63;;;;;;;;;;5075225;28;20048;-76
2021/12/21 08:21:19;;;;;;;21.70;12.80;;;;;;;;;;5091636;28;20135;-76
2021/12/21 08:23:46;;;;;;;24.27;13.68;;;;;;;;;;5089968;28;20055;-75
2021/12/21 08:26:12;;;;;;;;;;;;;;;;;;5091773;28;20052;-76
2021/12/21 08:28:38;;;;;;;24.67;13.90;;;;;;;;;;5074570;28;20033;-76
2021/12/21 08:31:10;;;;;;;48.72;14.55;;;;;;;;;;5090779;28;20078;-76
2021/12/21 08:33:36;;;;;;;23.40;13.05;;;;;;;;;;5074221;28;20406;-77
2021/12/21 08:36:03;;;;;;;28.15;13.95;;;;;;;;;;5091035;28;20196;-77
2021/12/21 08:38:31;;;;;;;36.22;13.95;;;;;;;;;;5090709;28;20435;-76
2021/12/21 08:40:59;;;;;;;25.98;12.60;;;;;;;;;;5075406;28;20051;-76
2021/12/21 08:43:27;;;;;;;32.60;14.20;;;;;;;;;;5075996;28;20403;-76
2021/12/21 08:45:53;;;;;;;28.83;14.10;;;;;;;;;;5092412;28;20083;-76
2021/12/21 08:48:20;;;;;;;27.70;13.48;;;;;;;;;;5075235;28;20395;-76
2021/12/21 08:50:47;;;;;;;30.92;14.75;;;;;;;;;;5074636;28;20040;-76
2021/12/21 08:53:14;;;;;;;33.53;13.82;;;;;;;;;;5075593;28;20052;-76
2021/12/21 08:55:41;;;;;;;31.58;13.65;;;;;;;;;;5092302;28;20044;-76
2021/12/21 08:58:07;;;;;;;25.42;13.40;;;;;;;;;;5092301;28;20052;-76
2021/12/21 09:00:33;;;;;;;;;;;-1.00;99.90;;;;;;5075670;28;20480;-77
2021/12/21 09:02:59;;;;;;;29.80;13.75;;;;;;;;;;5075494;28;19942;-76
2021/12/21 09:05:29;;;;;;;25.50;13.32;;;;;;;;;;5074959;28;20052;-76
2021/12/21 09:07:55;;;;;;;23.90;13.60;;;;;;;;;;5092236;28;20044;-76
2021/12/21 09:10:22;;;;;;;25.42;13.38;;;;;;;;;;5092166;28;20040;-77
2021/12/21 09:12:48;;;;;;;27.42;14.10;;;;;;;;;;5093079;28;20048;-76
2021/12/21 09:15:16;;;;;;;26.17;13.90;;;;;;;;;;5096161;28;20377;-77
2021/12/21 09:17:44;;;;;;;28.20;13.68;;;;;;;;;;5079405;28;20048;-76
2021/12/21 09:20:15;;;;;;;27.80;15.25;;;-0.60;99.90;;;;;;5095856;28;20528;-77
2021/12/21 09:22:42;;;;;;;29.08;14.38;;;;;;;;;;5096116;28;20189;-77
2021/12/21 09:25:08;;;;;;;26.75;14.85;;;;;;;;;;5095856;28;20523;-74
2021/12/21 09:27:34;;;;;;;28.02;14.18;;;;;;;;;;5087303;28;20074;-78
2021/12/21 09:30:01;;;;;;;29.10;15.52;;;;;;;;;;5095913;28;20059;-78
2021/12/21 09:32:27;;;;;;;30.30;14.85;;;;;;;;;;5073289;28;20188;-78
2021/12/21 09:34:53;;;;;;;28.02;13.75;;;;;;;;;;5094328;28;20056;-78
2021/12/21 09:37:20;;;;;;;29.75;15.02;;;;;;;;;;5095415;28;20377;-78
2021/12/21 09:39:52;;;;;;;32.47;15.60;;;;;;;;;;5077026;28;20048;-78
2021/12/21 09:42:20;;;;;;;30.92;17.67;;;;;;;;;;5087650;28;20399;-78
2021/12/21 09:44:47;;;;;;;31.90;15.98;;;;;;;;;;5094301;28;20050;-78
2021/12/21 09:47:14;;;;;;;32.65;15.38;;;;;;;;;;5094077;28;20507;-78
2021/12/21 09:49:41;;;;;;;32.25;16.73;;;;;;;;;;5095166;28;20051;-78
2021/12/21 09:52:08;;;;;;;32.08;15.80;;;;;;;;;;5095293;28;20150;-78
2021/12/21 09:54:35;;;;;;;30.05;15.40;;;;;;;;;;5095442;28;20059;-77
2021/12/21 09:57:01;;;;;;;35.45;16.40;;;;;;;;;;5095342;28;20082;-78
2021/12/21 09:59:27;;;;;;;32.05;15.07;;;;;;;;;;5096267;28;20158;-78
2021/12/21 10:01:56;;;;;;;32.92;15.43;;;;;;;;;;5095537;28;20098;-78
2021/12/21 10:04:22;;;;;;;29.88;15.45;;;;;;;;;;5095021;28;20048;-78
2021/12/21 10:06:50;;;;;;;;;;;0.50;99.90;;;;;;5096513;28;20055;-78
2021/12/21 10:09:18;;;;;;;37.30;16.10;;;;;;;;;;5095095;28;19927;-79
2021/12/21 10:11:49;;;;;;;31.98;15.05;;;;;;;;;;5094889;28;20044;-78
2021/12/21 10:14:16;;;;;;;30.00;14.85;;;;;;;;;;5095206;28;20131;-79
2021/12/21 10:16:42;;;;;;;34.42;14.95;;;;;;;;;;5095010;28;20063;-79
2021/12/21 10:19:08;;;;;;;;;;;0.80;99.90;;;;;;5095077;28;20140;-78
2021/12/21 10:21:44;;;;;;;34.03;14.52;;;;;;;;;;5077761;28;19959;-79
2021/12/21 10:24:21;;;;;;;30.60;14.55;;;;;;;;;;5094588;28;20043;-79
2021/12/21 10:26:47;;;;;;;29.83;13.90;;;;;;;;;;5094598;28;20576;-78
2021/12/21 10:29:15;;;;;;;27.10;14.20;;;;;;;;;;5094691;28;20113;-78
2021/12/21 10:31:45;;;;;;;27.83;14.98;;;;;;;;;;5094279;28;20476;-79
2021/12/21 10:34:13;;;;;;;29.50;14.32;;;;;;;;;;5077196;28;20131;-79
2021/12/21 10:36:43;;;;;;;30.58;16.23;;;;;;;;;;5094466;28;20508;-79
2021/12/21 10:39:09;;;;;;;42.13;18.20;;;;;;;;;;5094545;28;20047;-79
2021/12/21 10:41:38;;;;;;;33.67;15.45;;;;;;;;;;5094406;28;20048;-80
2021/12/21 10:44:12;;;;;;;37.25;15.57;;;;;;;;;;5077511;28;20135;-80
2021/12/21 10:46:40;;;;;;;27.83;14.30;;;;;;;;;;5076969;28;20063;-80
2021/12/21 10:49:07;;;;;;;35.45;16.00;;;;;;;;;;5094266;28;20040;-80
2021/12/21 10:51:33;;;;;;;26.48;13.23;;;;;;;;;;5095211;28;20048;-81
2021/12/21 10:53:59;;;;;;;26.33;13.43;;;;;;;;;;5094962;28;20089;-81
2021/12/21 10:56:25;;;;;;;27.70;12.82;;;;;;;;;;5093784;28;20098;-81
2021/12/21 10:58:51;;;;;;;22.30;13.45;;;;;;;;;;5093682;28;20040;-81
2021/12/21 11:01:25;;;;;;;34.60;13.38;;;;;;;;;;5093533;28;20048;-81
2021/12/21 11:03:54;;;;;;;32.70;14.38;;;;;;;;;;5094092;28;20090;-81
2021/12/21 11:06:34;;;;;;;29.55;14.65;;;;;;;;;;5093934;28;20048;-81
2021/12/21 11:09:04;;;;;;;30.90;14.25;;;;;;;;;;5077412;28;20047;-81
2021/12/21 11:11:33;;;;;;;24.40;12.75;;;;;;;;;;5093668;28;20044;-81
2021/12/21 11:14:05;;;;;;;22.02;12.70;;;;;;;;;;5076989;28;20055;-81
2021/12/21 11:16:48;;;;;;;22.50;11.60;;;;;;;;;;5093408;28;20055;-81
2021/12/21 11:19:16;;;;;;;24.45;12.20;;;2.40;99.90;;;;;;5093660;28;20437;-80
2021/12/21 11:21:44;;;;;;;21.50;10.82;;;2.40;99.90;;;;;;5094726;28;20067;-80
2021/12/21 11:24:11;;;;;;;23.60;11.73;;;;;;;;;;5093636;28;20048;-80
2021/12/21 11:26:38;;;;;;;22.27;11.15;;;;;;;;;;5093723;28;20051;-80
2021/12/21 11:29:09;;;;;;;29.65;11.43;;;;;;;;;;5094561;28;20395;-80
2021/12/21 11:31:40;;;;;;;25.80;12.05;;;;;;;;;;5092390;28;20063;-80
2021/12/21 11:34:08;;;;;;;25.55;11.27;;;;;;;;;;5086327;28;20124;-80
2021/12/21 11:39:23;;;;;;;26.15;11.15;;;;;;;;;;5073062;28;20400;-78
2021/12/21 11:41:49;;;;;;;;;;;2.40;99.90;;;;;;5073429;28;20048;-78
2021/12/21 11:44:33;;;;;;;27.27;10.95;;;;;;;;;;5072987;28;19927;-78
2021/12/21 11:47:03;;;;;;;21.27;10.38;;;;;;;;;;5073944;28;20507;-77
2021/12/21 11:49:34;;;;;;;20.67;11.10;;;;;;;;;;5072945;28;20480;-78
2021/12/21 11:52:07;;;;;;;20.60;9.85;;;;;;;;;;5074007;28;20499;-77
2021/12/21 11:54:42;;;;;;;24.88;11.07;;;2.30;99.90;;;;;;5073811;28;20049;-77
2021/12/21 11:57:09;;;;;;;18.52;10.38;;;;;;;;;;5073967;28;20084;-76
2021/12/21 11:59:35;;;;;;;22.83;11.30;;;;;;;;;;5073597;28;20075;-75
2021/12/21 12:02:03;;;;;;;22.90;9.45;;;;;;;;;;5073451;28;20574;-75
2021/12/21 12:04:29;;;;;;;24.85;9.35;;;;;;;;;;5073688;28;20099;-75
2021/12/21 12:06:59;;;;;;;21.50;9.60;;;;;;;;;;5073699;28;20051;-74
2021/12/21 12:09:28;;;;;;;25.60;9.38;;;;;;;;;;5073834;28;20084;-74
2021/12/21 12:12:06;;;;;;;18.73;9.50;;;;;;;;;;5073535;28;20090;-74
2021/12/21 12:14:35;;;;;;;21.88;9.00;;;;;;;;;;5072972;28;20488;-75
2021/12/21 12:17:05;;;;;;;17.13;8.82;;;;;;;;;;5073533;28;20088;-73
2021/12/21 12:19:32;;;;;;;16.63;8.18;;;;;;;;;;5073472;28;20049;-73
2021/12/21 12:21:59;;;;;;;17.52;8.15;;;;;;;;;;5072782;28;20049;-73
2021/12/21 12:24:27;;;;;;;17.58;7.35;;;;;;;;;;5072174;28;20098;-72
2021/12/21 12:26:58;;;;;;;18.83;7.15;;;;;;;;;;5073520;28;20086;-72
2021/12/21 12:29:25;;;;;;;17.00;6.80;;;;;;;;;;5073186;28;20083;-72
2021/12/21 12:31:57;;;;;;;16.88;6.35;;;;;;;;;;5071755;28;20067;-71
2021/12/21 12:34:25;;;;;;;16.08;5.97;;;;;;;;;;5073375;28;20048;-72
2021/12/21 12:36:51;;;;;;;19.80;8.68;;;;;;;;;;5073313;28;20132;-71
2021/12/21 12:39:26;;;;;;;19.35;8.60;;;;;;;;;;5073321;28;20401;-71
2021/12/21 12:41:53;;;;;;;19.13;9.35;;;;;;;;;;5073250;28;20044;-71
2021/12/21 12:44:22;;;;;;;23.00;9.50;;;;;;;;;;5085087;28;20090;-71
2021/12/21 12:46:58;;;;;;;19.20;8.77;;;3.80;99.90;;;;;;5093147;28;20048;-71
2021/12/21 12:49:25;;;;;;;16.70;7.40;;;;;;;;;;5096774;28;20087;-71
2021/12/21 12:51:52;;;;;;;15.57;6.82;;;;;;;;;;5097331;28;20551;-70
2021/12/21 12:54:25;;;;;;;16.50;6.55;;;5.30;99.90;;;;;;5097536;28;20063;-70
2021/12/21 12:56:51;;;;;;;12.90;5.95;;;;;;;;;;5097283;28;20496;-70
2021/12/21 12:59:17;;;;;;;12.45;5.88;;;;;;;;;;5097584;28;20432;-70
2021/12/21 13:01:48;;;;;;;15.05;5.93;;;5.80;99.90;;;;;;5096337;28;20048;-70
2021/12/21 13:04:16;;;;;;;22.88;5.82;;;5.90;99.90;;;;;;5097362;28;20044;-69
2021/12/21 13:06:43;;;;;;;15.65;5.95;;;6.10;99.90;;;;;;5097323;28;20055;-70
2021/12/21 13:09:12;;;;;;;13.50;5.07;;;6.10;99.90;;;;;;5097178;28;20059;-69
2021/12/21 13:11:40;;;;;;;13.55;5.50;;;;;;;;;;5096946;28;20044;-70
2021/12/21 13:14:08;;;;;;;15.95;5.35;;;6.40;99.90;;;;;;5097199;28;20169;-69
2021/12/21 13:16:36;;;;;;;11.95;4.93;;;6.50;99.90;;;;;;5097130;28;20048;-69
2021/12/21 13:19:12;;;;;;;15.68;5.10;;;6.50;99.90;;;;;;5097097;28;20048;-69
2021/12/21 13:21:54;;;;;;;11.02;5.07;;;6.60;99.90;;;;;;5097303;28;20044;-69
2021/12/21 13:24:24;;;;;;;12.95;4.65;;;;;;;;;;5097059;28;20044;-69
2021/12/21 13:26:55;;;;;;;9.95;5.18;;;6.40;99.90;;;;;;5096667;28;20047;-69
2021/12/21 13:29:30;;;;;;;13.45;4.72;;;6.50;99.90;;;;;;5096929;28;20488;-69
2021/12/21 13:31:57;;;;;;;11.40;4.88;;;;;;;;;;5096548;28;20052;-69
2021/12/21 13:34:25;;;;;;;14.25;4.63;;;5.20;99.90;;;;;;5096776;28;20052;-69
2021/12/21 13:36:53;;;;;;;11.38;5.00;;;;;;;;;;5096737;28;20036;-69
2021/12/21 13:39:36;;;;;;;12.15;5.40;;;;;;;;;;5096729;28;20147;-69
2021/12/21 13:42:10;;;;;;;10.55;5.47;;;4.00;99.90;;;;;;5096418;28;20040;-69
2021/12/21 13:44:44;;;;;;;9.75;5.43;;;;;;;;;;5096662;28;20052;-69
2021/12/21 13:47:23;;;;;;;13.52;5.15;;;;;;;;;;5096646;28;20506;-69
2021/12/21 13:49:51;;;;;;;11.75;5.30;;;;;;;;;;5095503;28;20101;-69
2021/12/21 13:52:19;;;;;;;8.98;4.88;;;3.40;99.90;;;;;;5095395;28;20442;-69
2021/12/21 13:54:45;;;;;;;10.40;4.97;;;;;;;;;;5096032;28;20514;-70
2021/12/21 13:57:14;;;;;;;13.95;5.47;;;;;;;;;;5096067;28;20154;-69
2021/12/21 13:59:40;;;;;;;9.88;4.82;;;3.10;99.90;;;;;;5095907;28;20083;-69
2021/12/21 14:02:08;;;;;;;8.98;4.95;;;;;;;;;;5096250;28;20161;-69
2021/12/21 14:04:47;;;;;;;10.15;4.65;;;;;;;;;;5096245;28;20051;-69
2021/12/21 14:07:13;;;;;;;9.93;5.20;;;;;;;;;;5096260;28;20048;-69
2021/12/21 14:09:39;;;;;;;10.05;5.07;;;;;;;;;;5096019;28;20127;-69
2021/12/21 14:12:13;;;;;;;12.20;5.22;;;;;;;;;;5094822;28;20127;-69
2021/12/21 14:14:40;;;;;;;16.83;6.07;;;3.00;99.90;;;;;;5096204;28;20450;-69
2021/12/21 14:17:12;;;;;;;13.98;5.85;;;;;;;;;;5095997;28;20093;-70
2021/12/21 14:19:38;;;;;;;14.43;5.47;;;;;;;;;;5095667;28;20104;-69
2021/12/21 14:22:04;;;;;;;12.45;5.43;;;;;;;;;;5095887;28;20490;-70
2021/12/21 14:24:31;;;;;;;16.27;5.65;;;;;;;;;;5095610;28;20048;-69
2021/12/21 14:26:57;;;;;;;;;;;2.70;99.90;;;;;;5096184;28;20040;-70
2021/12/21 14:29:25;;;;;;;10.37;5.43;;;;;;;;;;5096057;28;20296;-70
2021/12/21 14:32:00;;;;;;;10.20;5.40;;;;;;;;;;5094304;28;20313;-70
2021/12/21 14:34:27;;;;;;;16.13;5.80;;;;;;;;;;5095789;28;20047;-70
2021/12/21 14:36:54;;;;;;;14.95;5.53;;;;;;;;;;5090015;28;20669;-71
2021/12/21 14:39:23;;;;;;;14.43;6.03;;;;;;;;;;5094352;28;20051;-70
2021/12/21 14:41:51;;;;;;;15.38;5.85;;;2.30;99.90;;;;;;5093650;28;20082;-70
2021/12/21 14:44:20;;;;;;;12.45;5.60;;;2.60;99.90;;;;;;5095036;28;20126;-71
2021/12/21 14:46:53;;;;;;;16.23;6.30;;;;;;;;;;5092808;28;20048;-70
2021/12/21 14:49:53;;;;;;;13.63;6.13;;;2.60;99.90;;;;;;5095778;28;20431;-70
2021/12/21 14:52:26;;;;;;;18.38;6.72;;;;;;;;;;5073912;28;20465;-70
2021/12/21 14:54:54;;;;;;;16.77;5.97;;;;;;;;;;5095081;28;20058;-70
2021/12/21 14:57:29;;;;;;;15.95;7.78;;;;;;;;;;5094035;28;20044;-70
2021/12/21 14:59:55;;;;;;;15.30;6.82;;;;;;;;;;5095337;28;20052;-70
2021/12/21 15:04:57;;;;;;;12.10;6.30;;;;;;;;;;5095069;28;20480;-70
2021/12/21 15:07:23;;;;;;;11.23;6.43;;;;;;;;;;5093694;28;20048;-70
2021/12/21 15:09:50;;;;;;;11.95;6.78;;;;;;;;;;5094223;28;20048;-70
2021/12/21 15:12:17;;;;;;;13.65;6.47;;;;;;;;;;5094158;28;20050;-70
2021/12/21 15:14:43;;;;;;;14.07;6.70;;;;;;;;;;5093938;28;20077;-70
2021/12/21 15:17:09;;;;;;;12.07;6.82;;;;;;;;;;5094796;28;20052;-70
2021/12/21 15:19:36;;;;;;;18.38;7.53;;;;;;;;;;5094800;28;20442;-70
2021/12/21 15:22:02;;;;;;;15.50;7.65;;;;;;;;;;5094492;28;20055;-70